createdAt,value
2019-04-07T00:01:31.836Z,98423.84
2019-04-07T00:03:58.612Z,98421.79
2019-04-07T00:06:25.853Z,98423.11
2019-04-07T00:08:52.604Z,98421.53
2019-04-07T00:11:19.591Z,98422.14
2019-04-07T00:13:46.249Z,98425.00
2019-04-07T00:16:13.400Z,98428.69
2019-04-07T00:18:40.173Z,98420.89
2019-04-07T00:21:06.744Z,98422.79
2019-04-07T00:23:33.568Z,98416.78
2019-04-07T00:26:00.280Z,98419.63
2019-04-07T00:28:27.513Z,98415.08
2019-04-07T00:30:54.237Z,98413.13
2019-04-07T00:33:20.813Z,98415.50
2019-04-07T00:35:47.385Z,98420.04
2019-04-07T00:38:13.993Z,98420.73
2019-04-07T00:40:40.577Z,98424.34
2019-04-07T00:43:07.193Z,98420.97
2019-04-07T00:45:33.801Z,98417.23
2019-04-07T00:48:00.503Z,98417.34
2019-04-07T00:50:27.118Z,98415.38
2019-04-07T00:52:53.732Z,98417.75
2019-04-07T00:55:20.456Z,98420.60
2019-04-07T00:57:47.159Z,98416.12
2019-04-07T01:00:16.481Z,98414.00
2019-04-07T01:02:42.191Z,98416.19
2019-04-07T01:05:08.837Z,98414.58
2019-04-07T01:07:35.557Z,98419.30
2019-04-07T01:10:02.213Z,98420.82
2019-04-07T01:12:29.505Z,98423.39
2019-04-07T01:14:56.570Z,98417.52
2019-04-07T01:17:23.785Z,98417.92
2019-04-07T01:19:50.891Z,98416.30
2019-04-07T01:22:17.727Z,98422.24
2019-04-07T01:24:44.440Z,98417.65
2019-04-07T01:27:11.581Z,98413.06
2019-04-07T01:29:38.770Z,98417.48
2019-04-07T01:32:06.049Z,98419.37
2019-04-07T01:34:32.712Z,98410.29
2019-04-07T01:36:59.817Z,98406.44
2019-04-07T01:39:26.457Z,98414.16
2019-04-07T01:41:53.717Z,98410.89
2019-04-07T01:44:20.597Z,98412.12
2019-04-07T01:46:47.222Z,98413.40
2019-04-07T01:49:13.799Z,98410.22
2019-04-07T01:51:40.941Z,98404.89
2019-04-07T01:54:07.721Z,98407.56
2019-04-07T01:56:34.299Z,98398.28
2019-04-07T01:59:01.520Z,98401.23
2019-04-07T02:01:28.516Z,98408.95
2019-04-07T02:03:55.193Z,98408.20
2019-04-07T02:06:22.147Z,98412.34
2019-04-07T02:08:48.794Z,98406.33
2019-04-07T02:11:15.406Z,98411.22
2019-04-07T02:13:42.865Z,98410.27
2019-04-07T02:16:10.282Z,98415.91
2019-04-07T02:18:37.725Z,98424.27
2019-04-07T02:21:05.326Z,98420.78
2019-04-07T02:23:32.618Z,98420.17
2019-04-07T02:25:59.391Z,98418.95
2019-04-07T02:28:26.415Z,98423.83
2019-04-07T02:30:53.133Z,98416.79
2019-04-07T02:33:19.714Z,98416.23
2019-04-07T02:35:46.635Z,98420.98
2019-04-07T02:38:16.090Z,98415.85
2019-04-07T02:40:42.646Z,98417.54
2019-04-07T02:43:10.449Z,98413.84
2019-04-07T02:45:37.214Z,98417.59
2019-04-07T02:48:03.809Z,98420.03
2019-04-07T02:50:39.863Z,98415.98
2019-04-07T02:53:07.513Z,98416.27
2019-04-07T02:55:34.308Z,98416.64
2019-04-07T02:58:01.514Z,98417.95
2019-04-07T03:00:28.257Z,98417.73
2019-04-07T03:02:55.830Z,98412.84
2019-04-07T03:05:22.602Z,98412.18
2019-04-07T03:07:49.217Z,98413.30
2019-04-07T03:10:15.930Z,98411.78
2019-04-07T03:12:43.393Z,98412.91
2019-04-07T03:15:10.991Z,98413.62
2019-04-07T03:17:37.792Z,98413.52
2019-04-07T03:20:05.098Z,98417.27
2019-04-07T03:22:32.436Z,98426.00
2019-04-07T03:24:59.990Z,98425.91
2019-04-07T03:27:27.137Z,98424.02
2019-04-07T03:29:53.890Z,98429.55
2019-04-07T03:32:23.867Z,98431.02
2019-04-07T03:34:49.556Z,98424.34
2019-04-07T03:37:30.984Z,98425.83
2019-04-07T03:39:46.032Z,98421.31
2019-04-07T03:42:12.700Z,98426.38
2019-04-07T03:44:39.265Z,98426.17
2019-04-07T03:47:07.012Z,98423.92
2019-04-07T03:49:35.007Z,98425.09
2019-04-07T03:52:02.014Z,98424.63
2019-04-07T03:54:29.109Z,98429.32
2019-04-07T03:56:56.545Z,98423.11
2019-04-07T03:59:23.370Z,98430.63
2019-04-07T04:01:49.962Z,98426.31
2019-04-07T04:04:16.628Z,98427.62
2019-04-07T04:06:43.330Z,98424.05
2019-04-07T04:09:09.980Z,98429.32
2019-04-07T04:11:36.657Z,98429.12
2019-04-07T04:14:03.233Z,98426.29
2019-04-07T04:16:29.812Z,98427.30
2019-04-07T04:18:56.856Z,98430.30
2019-04-07T04:21:24.262Z,98428.86
2019-04-07T04:23:51.655Z,98433.55
2019-04-07T04:26:18.385Z,98436.92
2019-04-07T04:28:45.002Z,98441.61
2019-04-07T04:31:11.580Z,98439.52
2019-04-07T04:33:38.148Z,98434.53
2019-04-07T04:36:05.621Z,98436.83
2019-04-07T04:38:32.280Z,98445.36
2019-04-07T04:40:58.888Z,98440.37
2019-04-07T04:43:25.563Z,98440.53
2019-04-07T04:45:53.250Z,98435.16
2019-04-07T04:48:20.073Z,98438.03
2019-04-07T04:50:47.175Z,98437.45
2019-04-07T04:53:14.902Z,98441.10
2019-04-07T04:55:41.717Z,98445.69
2019-04-07T04:58:08.786Z,98449.44
2019-04-07T05:00:36.397Z,98451.25
2019-04-07T05:03:03.149Z,98449.16
2019-04-07T05:05:30.373Z,98451.88
2019-04-07T05:08:02.706Z,98458.28
2019-04-07T05:10:25.469Z,98460.97
2019-04-07T05:12:53.675Z,98456.46
2019-04-07T05:15:21.000Z,98458.30
2019-04-07T05:17:47.731Z,98460.63
2019-04-07T05:20:14.304Z,98463.63
2019-04-07T05:22:41.232Z,98465.76
2019-04-07T05:25:08.556Z,98461.70
2019-04-07T05:27:35.393Z,98464.81
2019-04-07T05:30:02.469Z,98471.88
2019-04-07T05:32:29.231Z,98473.67
2019-04-07T05:34:55.810Z,98471.40
2019-04-07T05:37:22.987Z,98472.13
2019-04-07T05:39:49.921Z,98475.98
2019-04-07T05:42:16.664Z,98479.83
2019-04-07T05:44:44.385Z,98483.10
2019-04-07T05:47:13.717Z,98483.36
2019-04-07T05:49:39.408Z,98479.78
2019-04-07T05:52:06.718Z,98481.33
2019-04-07T05:54:34.048Z,98484.23
2019-04-07T05:57:01.603Z,98482.11
2019-04-07T05:59:29.596Z,98485.27
2019-04-07T06:02:00.744Z,98483.13
2019-04-07T06:04:26.031Z,98478.38
2019-04-07T06:06:55.345Z,98479.63
2019-04-07T06:09:21.108Z,98482.90
2019-04-07T06:11:48.820Z,98485.95
2019-04-07T06:14:16.728Z,98483.68
2019-04-07T06:16:43.788Z,98477.37
2019-04-07T06:19:10.644Z,98486.03
2019-04-07T06:21:37.810Z,98480.78
2019-04-07T06:24:04.766Z,98479.84
2019-04-07T06:26:31.394Z,98485.98
2019-04-07T06:28:58.868Z,98481.69
2019-04-07T06:31:26.892Z,98476.19
2019-04-07T06:33:55.090Z,98480.20
2019-04-07T06:36:22.216Z,98484.16
2019-04-07T06:38:51.849Z,98476.97
2019-04-07T06:41:17.411Z,98484.77
2019-04-07T06:43:44.154Z,98488.27
2019-04-07T06:46:10.784Z,98495.70
2019-04-07T06:48:39.034Z,98493.29
2019-04-07T06:51:06.038Z,98494.98
2019-04-07T06:53:32.813Z,98493.66
2019-04-07T06:56:02.111Z,98494.61
2019-04-07T06:58:27.683Z,98492.45
2019-04-07T07:00:55.957Z,98488.27
2019-04-07T07:03:22.669Z,98492.70
2019-04-07T07:05:49.520Z,98494.52
2019-04-07T07:08:19.352Z,98501.74
2019-04-07T07:10:44.493Z,98501.00
2019-04-07T07:13:20.189Z,98498.73
2019-04-07T07:15:39.683Z,98507.02
2019-04-07T07:18:06.387Z,98509.30
2019-04-07T07:20:32.997Z,98510.25
2019-04-07T07:23:00.699Z,98505.11
2019-04-07T07:25:29.702Z,98513.88
2019-04-07T07:27:55.662Z,98508.93
2019-04-07T07:30:22.236Z,98513.88
2019-04-07T07:32:49.685Z,98511.25
2019-04-07T07:35:16.546Z,98518.22
2019-04-07T07:37:43.445Z,98515.73
2019-04-07T07:40:10.116Z,98518.26
2019-04-07T07:42:36.739Z,98520.42
2019-04-07T07:45:03.693Z,98518.12
2019-04-07T07:47:31.216Z,98526.09
2019-04-07T07:49:58.446Z,98527.99
2019-04-07T07:52:25.536Z,98530.62
2019-04-07T07:54:52.989Z,98530.38
2019-04-07T07:57:23.485Z,98527.83
2019-04-07T07:59:48.654Z,98533.03
2019-04-07T08:02:19.458Z,98537.81
2019-04-07T08:04:43.603Z,98536.97
2019-04-07T08:07:13.444Z,98538.41
2019-04-07T08:09:39.250Z,98534.44
2019-04-07T08:12:06.301Z,98534.92
2019-04-07T08:14:32.940Z,98539.98
2019-04-07T08:17:01.619Z,98539.50
2019-04-07T08:19:29.662Z,98538.05
2019-04-07T08:21:56.111Z,98539.86
2019-04-07T08:24:22.920Z,98547.67
2019-04-07T08:26:50.311Z,98548.88
2019-04-07T08:29:17.018Z,98544.67
2019-04-07T08:31:43.806Z,98544.31
2019-04-07T08:34:10.966Z,98547.56
2019-04-07T08:36:38.075Z,98547.20
2019-04-07T08:39:05.016Z,98552.13
2019-04-07T08:41:32.539Z,98551.53
2019-04-07T08:43:59.852Z,98554.54
2019-04-07T08:46:26.552Z,98556.10
2019-04-07T08:48:54.289Z,98554.17
2019-04-07T08:51:21.351Z,98554.42
2019-04-07T08:53:48.422Z,98556.95
2019-04-07T08:56:15.482Z,98560.31
2019-04-07T08:58:42.565Z,98561.52
2019-04-07T09:01:09.724Z,98555.63
2019-04-07T09:03:36.465Z,98560.31
2019-04-07T09:06:03.074Z,98562.45
2019-04-07T09:08:29.726Z,98556.06
2019-04-07T09:10:56.690Z,98560.11
2019-04-07T09:13:24.032Z,98560.91
2019-04-07T09:15:50.635Z,98557.52
2019-04-07T09:18:18.090Z,98557.70
2019-04-07T09:20:48.485Z,98559.97
2019-04-07T09:23:14.683Z,98562.80
2019-04-07T09:25:42.777Z,98568.56
2019-04-07T09:28:10.082Z,98559.47
2019-04-07T09:30:36.852Z,98559.45
2019-04-07T09:33:03.561Z,98565.59
2019-04-07T09:35:30.929Z,98569.80
2019-04-07T09:37:57.701Z,98566.05
2019-04-07T09:40:24.450Z,98569.67
2019-04-07T09:42:51.934Z,98562.86
2019-04-07T09:45:18.627Z,98571.80
2019-04-07T09:47:47.156Z,98570.80
2019-04-07T09:50:13.583Z,98568.67
2019-04-07T09:52:43.575Z,98571.37
2019-04-07T09:55:09.496Z,98572.89
2019-04-07T09:57:38.736Z,98568.19
2019-04-07T10:00:07.286Z,98563.36
2019-04-07T10:02:35.437Z,98565.98
2019-04-07T10:05:01.857Z,98569.72
2019-04-07T10:07:28.474Z,98577.38
2019-04-07T10:10:07.411Z,98570.74
2019-04-07T10:12:24.797Z,98577.25
2019-04-07T10:14:51.592Z,98573.70
2019-04-07T10:17:18.189Z,98566.74
2019-04-07T10:19:44.746Z,98569.13
2019-04-07T10:22:12.312Z,98573.61
2019-04-07T10:24:39.407Z,98560.53
2019-04-07T10:27:06.932Z,98565.09
2019-04-07T10:29:34.092Z,98569.04
2019-04-07T10:32:01.256Z,98567.48
2019-04-07T10:34:28.426Z,98572.33
2019-04-07T10:36:55.720Z,98567.15
2019-04-07T10:39:22.989Z,98568.83
2019-04-07T10:41:50.667Z,98567.83
2019-04-07T10:44:17.945Z,98568.48
2019-04-07T10:46:44.963Z,98568.95
2019-04-07T10:49:11.827Z,98572.61
2019-04-07T10:51:38.415Z,98562.40
2019-04-07T10:54:04.989Z,98562.95
2019-04-07T10:56:31.972Z,98564.91
2019-04-07T10:58:59.349Z,98565.36
2019-04-07T11:01:26.696Z,98562.63
2019-04-07T11:03:54.752Z,98554.81
2019-04-07T11:06:22.692Z,98554.20
2019-04-07T11:08:49.464Z,98556.31
2019-04-07T11:11:16.186Z,98560.57
2019-04-07T11:13:42.957Z,98561.77
2019-04-07T11:16:10.814Z,98560.72
2019-04-07T11:18:38.240Z,98557.06
2019-04-07T11:21:04.833Z,98555.99
2019-04-07T11:23:31.981Z,98560.06
2019-04-07T11:25:59.363Z,98555.31
2019-04-07T11:28:28.699Z,98553.77
2019-04-07T11:30:54.368Z,98555.28
2019-04-07T11:33:20.990Z,98554.73
2019-04-07T11:35:47.637Z,98560.66
2019-04-07T11:38:14.893Z,98555.34
2019-04-07T11:40:47.595Z,98563.06
2019-04-07T11:43:10.704Z,98563.38
2019-04-07T11:45:37.787Z,98557.25
2019-04-07T11:48:04.465Z,98560.52
2019-04-07T11:50:31.042Z,98562.17
2019-04-07T11:52:57.635Z,98562.25
2019-04-07T11:55:26.211Z,98559.08
2019-04-07T11:58:06.598Z,98564.10
2019-04-07T12:00:20.925Z,98556.26
2019-04-07T12:02:49.293Z,98559.20
2019-04-07T12:05:15.947Z,98554.32
2019-04-07T12:07:42.509Z,98561.61
2019-04-07T12:10:09.575Z,98556.27
2019-04-07T12:12:36.274Z,98548.05
2019-04-07T12:15:02.888Z,98545.56
2019-04-07T12:17:30.052Z,98546.35
2019-04-07T12:19:57.831Z,98542.78
2019-04-07T12:22:24.991Z,98540.09
2019-04-07T12:24:51.671Z,98543.00
2019-04-07T12:27:21.153Z,98538.17
2019-04-07T12:29:47.170Z,98534.47
2019-04-07T12:32:13.826Z,98526.23
2019-04-07T12:34:43.900Z,98523.03
2019-04-07T12:37:10.312Z,98523.64
2019-04-07T12:39:37.013Z,98523.04
2019-04-07T12:42:04.425Z,98527.27
2019-04-07T12:44:31.942Z,98521.26
2019-04-07T12:46:58.570Z,98528.45
2019-04-07T12:49:25.371Z,98528.68
2019-04-07T12:51:55.688Z,98526.41
2019-04-07T12:54:20.721Z,98528.83
2019-04-07T12:56:47.801Z,98524.88
2019-04-07T12:59:16.531Z,98522.98
2019-04-07T13:01:47.077Z,98520.14
2019-04-07T13:04:11.197Z,98514.53
2019-04-07T13:06:42.321Z,98509.98
2019-04-07T13:09:06.081Z,98516.98
2019-04-07T13:11:37.288Z,98511.08
2019-04-07T13:14:05.010Z,98512.81
2019-04-07T13:16:29.524Z,98516.95
2019-04-07T13:18:56.653Z,98512.80
2019-04-07T13:21:24.996Z,98514.02
2019-04-07T13:23:51.815Z,98514.86
2019-04-07T13:26:18.702Z,98516.38
2019-04-07T13:28:45.361Z,98514.37
2019-04-07T13:31:12.414Z,98511.83
2019-04-07T13:33:39.455Z,98505.66
2019-04-07T13:36:06.175Z,98507.94
2019-04-07T13:38:32.885Z,98512.09
2019-04-07T13:40:59.596Z,98509.00
2019-04-07T13:43:26.525Z,98511.08
2019-04-07T13:45:53.924Z,98514.61
2019-04-07T13:48:21.423Z,98512.77
2019-04-07T13:50:48.023Z,98512.67
2019-04-07T13:53:14.642Z,98509.80
2019-04-07T13:55:43.822Z,98510.16
2019-04-07T13:58:09.736Z,98513.66
2019-04-07T14:00:37.016Z,98509.56
2019-04-07T14:03:03.672Z,98508.34
2019-04-07T14:05:30.243Z,98512.14
2019-04-07T14:07:57.152Z,98508.69
2019-04-07T14:10:24.413Z,98512.06
2019-04-07T14:12:51.080Z,98518.98
2019-04-07T14:15:17.650Z,98512.03
2019-04-07T14:17:44.972Z,98513.81
2019-04-07T14:20:11.693Z,98513.64
2019-04-07T14:22:38.320Z,98509.20
2019-04-07T14:25:04.887Z,98513.66
2019-04-07T14:27:31.458Z,98512.91
2019-04-07T14:29:58.036Z,98515.66
2019-04-07T14:32:24.610Z,98511.09
2019-04-07T14:34:51.190Z,98511.52
2019-04-07T14:37:18.598Z,98506.37
2019-04-07T14:39:45.577Z,98507.85
2019-04-07T14:42:13.098Z,98502.80
2019-04-07T14:44:40.173Z,98509.20
2019-04-07T14:47:07.614Z,98508.34
2019-04-07T14:49:34.345Z,98501.95
2019-04-07T14:52:01.419Z,98497.58
2019-04-07T14:54:28.232Z,98493.64
2019-04-07T14:56:55.362Z,98499.16
2019-04-07T14:59:24.653Z,98499.41
2019-04-07T15:01:51.247Z,98497.45
2019-04-07T15:04:18.181Z,98492.33
2019-04-07T15:06:44.942Z,98494.66
2019-04-07T15:09:12.200Z,98499.54
2019-04-07T15:11:38.829Z,98500.37
2019-04-07T15:14:06.162Z,98495.12
2019-04-07T15:16:32.914Z,98489.97
2019-04-07T15:18:59.587Z,98497.80
2019-04-07T15:21:26.159Z,98494.04
2019-04-07T15:23:52.989Z,98491.53
2019-04-07T15:26:20.366Z,98493.52
2019-04-07T15:28:46.940Z,98496.89
2019-04-07T15:31:17.240Z,98491.37
2019-04-07T15:33:42.346Z,98490.27
2019-04-07T15:36:09.356Z,98487.89
2019-04-07T15:38:37.411Z,98491.95
2019-04-07T15:41:07.792Z,98490.25
2019-04-07T15:43:34.859Z,98489.97
2019-04-07T15:46:01.272Z,98492.25
2019-04-07T15:48:28.557Z,98489.51
2019-04-07T15:50:56.142Z,98494.62
2019-04-07T15:53:22.890Z,98485.84
2019-04-07T15:55:58.480Z,98490.90
2019-04-07T15:58:17.796Z,98496.62
2019-04-07T16:00:45.130Z,98490.45
2019-04-07T16:03:15.091Z,98495.55
2019-04-07T16:05:43.819Z,98500.19
2019-04-07T16:08:11.246Z,98494.20
2019-04-07T16:10:37.568Z,98497.27
2019-04-07T16:13:04.676Z,98505.25
2019-04-07T16:15:33.249Z,98505.49
2019-04-07T16:18:03.415Z,98502.64
2019-04-07T16:20:32.338Z,98495.25
2019-04-07T16:22:57.460Z,98506.41
2019-04-07T16:25:27.602Z,98505.09
2019-04-07T16:27:52.510Z,98508.38
2019-04-07T16:30:20.290Z,98510.50
2019-04-07T16:32:48.020Z,98514.16
2019-04-07T16:35:16.367Z,98508.38
2019-04-07T16:37:43.741Z,98515.50
2019-04-07T16:40:11.663Z,98514.80
2019-04-07T16:42:39.234Z,98524.70
2019-04-07T16:45:06.081Z,98520.80
2019-04-07T16:47:35.620Z,98519.88
2019-04-07T16:50:01.113Z,98521.96
2019-04-07T16:52:31.807Z,98519.50
2019-04-07T16:54:56.084Z,98525.39
2019-04-07T16:57:26.971Z,98518.39
2019-04-07T16:59:50.980Z,98534.77
2019-04-07T17:02:19.247Z,98532.13
2019-04-07T17:04:48.392Z,98538.59
2019-04-07T17:07:16.761Z,98529.55
2019-04-07T17:09:43.293Z,98527.35
2019-04-07T17:12:11.582Z,98535.64
2019-04-07T17:14:38.201Z,98532.26
2019-04-07T17:17:05.031Z,98533.22
2019-04-07T17:19:32.467Z,98532.49
2019-04-07T17:22:00.352Z,98531.11
2019-04-07T17:24:30.311Z,98537.38
2019-04-07T17:26:56.235Z,98535.92
2019-04-07T17:29:23.531Z,98535.52
2019-04-07T17:31:50.849Z,98530.59
2019-04-07T17:34:18.429Z,98535.70
2019-04-07T17:36:48.487Z,98535.43
2019-04-07T17:39:14.345Z,98538.84
2019-04-07T17:41:41.660Z,98544.27
2019-04-07T17:44:08.362Z,98541.35
2019-04-07T17:46:34.927Z,98545.55
2019-04-07T17:49:01.497Z,98543.44
2019-04-07T17:51:28.698Z,98544.01
2019-04-07T17:53:55.333Z,98543.56
2019-04-07T17:56:22.219Z,98542.30
2019-04-07T17:58:48.910Z,98546.67
2019-04-07T18:01:15.873Z,98558.93
2019-04-07T18:03:44.212Z,98551.45
2019-04-07T18:06:11.221Z,98555.22
2019-04-07T18:08:41.789Z,98562.95
2019-04-07T18:11:06.416Z,98555.21
2019-04-07T18:13:41.984Z,98558.09
2019-04-07T18:16:01.298Z,98561.33
2019-04-07T18:18:28.261Z,98566.27
2019-04-07T18:20:55.011Z,98570.44
2019-04-07T18:23:24.053Z,98569.15
2019-04-07T18:25:51.838Z,98564.67
2019-04-07T18:28:21.541Z,98566.59
2019-04-07T18:30:47.226Z,98573.09
2019-04-07T18:33:18.238Z,98573.69
2019-04-07T18:35:42.984Z,98580.53
2019-04-07T18:38:11.431Z,98573.63
2019-04-07T18:40:39.336Z,98580.69
2019-04-07T18:43:06.328Z,98577.03
2019-04-07T18:45:33.100Z,98579.08
2019-04-07T18:47:59.982Z,98576.13
2019-04-07T18:50:26.562Z,98575.99
2019-04-07T18:52:55.540Z,98589.33
2019-04-07T18:55:22.408Z,98581.09
2019-04-07T18:57:49.166Z,98583.05
2019-04-07T19:00:17.010Z,98585.75
2019-04-07T19:02:45.971Z,98584.28
2019-04-07T19:05:14.033Z,98584.81
2019-04-07T19:07:41.654Z,98585.02
2019-04-07T19:10:15.499Z,98583.52
2019-04-07T19:12:36.780Z,98579.73
2019-04-07T19:15:08.050Z,98574.37
2019-04-07T19:17:32.660Z,98577.35
2019-04-07T19:20:00.682Z,98582.76
2019-04-07T19:22:27.376Z,98585.27
2019-04-07T19:24:55.816Z,98584.91
2019-04-07T19:27:25.381Z,98586.07
2019-04-07T19:29:50.820Z,98587.23
2019-04-07T19:32:17.964Z,98581.24
2019-04-07T19:34:45.806Z,98585.03
2019-04-07T19:37:15.553Z,98582.19
2019-04-07T19:39:40.675Z,98584.61
2019-04-07T19:42:08.801Z,98585.50
2019-04-07T19:44:40.015Z,98587.08
2019-04-07T19:47:04.441Z,98581.09
2019-04-07T19:49:31.118Z,98581.94
2019-04-07T19:52:02.353Z,98585.44
2019-04-07T19:54:27.207Z,98591.61
2019-04-07T19:56:54.699Z,98586.55
2019-04-07T19:59:21.703Z,98588.95
2019-04-07T20:01:49.108Z,98593.16
2019-04-07T20:04:16.314Z,98586.45
2019-04-07T20:06:44.016Z,98593.67
2019-04-07T20:09:12.255Z,98589.46
2019-04-07T20:11:39.923Z,98594.52
2019-04-07T20:14:10.471Z,98592.07
2019-04-07T20:16:34.880Z,98596.28
2019-04-07T20:19:02.345Z,98588.84
2019-04-07T20:21:37.471Z,98592.80
2019-04-07T20:24:02.292Z,98591.84
2019-04-07T20:26:26.207Z,98597.03
2019-04-07T20:28:53.002Z,98588.48
2019-04-07T20:31:22.461Z,98585.71
2019-04-07T20:33:47.856Z,98597.96
2019-04-07T20:36:20.249Z,98595.81
2019-04-07T20:38:42.841Z,98590.63
2019-04-07T20:41:12.033Z,98591.12
2019-04-07T20:43:38.389Z,98591.47
2019-04-07T20:46:05.085Z,98595.30
2019-04-07T20:48:33.376Z,98593.26
2019-04-07T20:51:00.473Z,98598.52
2019-04-07T20:53:29.857Z,98592.37
2019-04-07T20:55:56.077Z,98598.39
2019-04-07T20:58:25.088Z,98598.00
2019-04-07T21:00:58.352Z,98601.94
2019-04-07T21:03:22.648Z,98596.03
2019-04-07T21:05:48.272Z,98595.78
2019-04-07T21:08:15.024Z,98595.86
2019-04-07T21:10:41.621Z,98591.86
2019-04-07T21:13:08.761Z,98585.51
2019-04-07T21:15:35.765Z,98589.22
2019-04-07T21:18:02.503Z,98586.28
2019-04-07T21:20:29.810Z,98588.56
2019-04-07T21:22:56.680Z,98593.11
2019-04-07T21:25:25.146Z,98594.91
2019-04-07T21:27:52.664Z,98598.98
2019-04-07T21:30:19.403Z,98594.76
2019-04-07T21:32:48.512Z,98592.22
2019-04-07T21:35:14.999Z,98599.63
2019-04-07T21:37:45.054Z,98599.11
2019-04-07T21:40:10.050Z,98601.99
2019-04-07T21:42:36.916Z,98598.73
2019-04-07T21:45:05.787Z,98595.83
2019-04-07T21:47:31.922Z,98596.41
2019-04-07T21:49:58.561Z,98591.34
2019-04-07T21:52:25.993Z,98596.63
2019-04-07T21:54:53.319Z,98585.81
2019-04-07T21:57:20.266Z,98592.07
2019-04-07T21:59:47.864Z,98586.90
2019-04-07T22:02:15.343Z,98586.64
2019-04-07T22:04:42.083Z,98589.86
2019-04-07T22:07:09.086Z,98589.13
2019-04-07T22:09:35.829Z,98588.75
2019-04-07T22:12:02.434Z,98582.27
2019-04-07T22:14:29.009Z,98591.13
2019-04-07T22:16:55.615Z,98591.23
2019-04-07T22:19:22.325Z,98590.64
2019-04-07T22:21:53.248Z,98590.86
2019-04-07T22:24:17.283Z,98589.38
2019-04-07T22:26:49.202Z,98583.47
2019-04-07T22:29:12.212Z,98583.58
2019-04-07T22:31:38.825Z,98577.22
2019-04-07T22:34:05.400Z,98573.48
2019-04-07T22:36:32.020Z,98582.71
2019-04-07T22:39:00.959Z,98587.25
2019-04-07T22:41:27.062Z,98577.48
2019-04-07T22:43:53.668Z,98580.34
2019-04-07T22:46:24.592Z,98572.88
2019-04-07T22:48:48.573Z,98582.69
2019-04-07T22:51:15.178Z,98578.94
2019-04-07T22:53:41.750Z,98571.61
2019-04-07T22:56:09.133Z,98576.24
2019-04-07T22:58:36.129Z,98576.85
2019-04-07T23:01:02.872Z,98580.91
2019-04-07T23:03:29.457Z,98577.53
2019-04-07T23:05:56.062Z,98584.23
2019-04-07T23:08:22.646Z,98582.64
2019-04-07T23:10:49.741Z,98585.75
2019-04-07T23:13:16.624Z,98592.81
2019-04-07T23:15:45.856Z,98584.17
2019-04-07T23:18:11.662Z,98577.31
2019-04-07T23:20:38.336Z,98586.67
2019-04-07T23:23:04.960Z,98588.20
2019-04-07T23:25:32.252Z,98579.75
2019-04-07T23:27:58.905Z,98578.64
2019-04-07T23:30:25.705Z,98575.02
2019-04-07T23:32:52.336Z,98573.64
2019-04-07T23:35:18.933Z,98576.20
2019-04-07T23:37:45.514Z,98571.00
2019-04-07T23:40:12.092Z,98573.16
2019-04-07T23:42:38.667Z,98578.36
2019-04-07T23:45:05.248Z,98576.25
2019-04-07T23:47:31.837Z,98580.97
2019-04-07T23:49:58.677Z,98575.19
2019-04-07T23:52:25.260Z,98577.18
2019-04-07T23:54:52.457Z,98576.91
2019-04-07T23:57:19.786Z,98577.95
2019-04-07T23:59:47.202Z,98570.72
